Latest Coastal Weather Observations for Swan Island

IDT60701

Issued at 6:03 pm EST Sunday 23 April 2017 (issued every 10 minutes, with the page automatically refreshed every 10 minutes)

About coastal observations | Map of coastal stations | Coastal observations for TAS | Marine services | Other Formats
Station Details ID: 092123 Name: SWAN ISLAND Lat: -40.73 Lon: 148.12 Height: 15.0 m
Data from the previous 72 hours. | See also: Recent months at Swan Island
Date/Time
EST
Temp
°C
Wind Pressure Rain since
9am
mm
Weather Cloud Vis
km
Sea
Height
m
Swell
Dir  Spd
kts
Gust
kts
hPa Trend Height
m
Period
s
Dir
23/06:00pm 15.5 SE 17 18 - - - - - - - - - -
23/05:30pm 15.5 SE 17 21 1023.5 - 0.0 - - - - - - -
23/05:00pm 15.6 SE 17 22 1023.5 - 0.0 - - - - - - -
23/04:30pm 15.7 SE 18 23 1023.2 - 0.0 - - - - - - -
23/04:00pm 15.8 SE 20 23 1023.2 - 0.0 - - - - - - -
23/03:30pm 16.2 SE 19 25 1023.1 - 0.0 - - - - - - -
23/03:00pm 16.0 SE 19 25 1023.2 - 0.0 - - - - - - -
23/02:30pm 16.2 SE 17 21 1023.4 - 0.0 - - - - - - -
23/02:00pm 16.0 SE 16 20 1023.4 - 0.0 - - - - - - -
23/01:30pm 16.3 SE 16 21 1023.3 - 0.0 - - - - - - -
23/01:00pm 16.2 SE 16 19 1023.5 - 0.0 - - - - - - -
23/12:30pm 16.4 SE 15 19 1023.5 - 0.0 - - - - - - -
23/12:00pm 16.6 SE 15 18 1023.8 - 0.0 - - - - - - -
23/11:30am 17.1 SE 13 18 1024.2 - 0.0 - - - - - - -
23/11:00am 17.2 SE 13 16 1024.4 - 0.0 - - - - - - -
23/10:30am 17.0 SSE 11 15 1024.5 - 0.0 - - - - - - -
23/10:00am 16.9 SSE 12 16 1024.5 - 0.0 - - - - - - -
23/09:30am 16.5 SE 11 15 1024.6 - 0.0 - - - - - - -
23/09:00am 16.3 SE 11 15 1024.6 - 0.0 - - - - - - -
23/08:30am 16.1 SSE 11 13 1024.6 - 0.0 - - - - - - -
23/08:00am 16.1 SE 10 13 1024.4 - 0.0 - - - - - - -
23/07:30am 16.1 SE 10 14 1024.2 - 0.0 - - - - - - -
23/07:00am 16.2 SSE 13 17 1023.7 - 0.0 - - - - - - -
23/06:30am 16.1 SE 12 16 1023.5 - 0.0 - - - - - - -
23/06:00am 16.1 SE 9 12 1023.4 - 0.0 - - - - - - -
23/05:30am 16.1 SSE 10 12 1023.2 - 0.0 - - - - - - -
23/05:00am 16.2 SSE 9 12 1023.0 - 0.0 - - - - - - -
23/04:30am 16.2 SSE 8 11 1022.8 - 0.0 - - - - - - -
23/04:00am 16.2 SSE 9 12 1022.7 - 0.0 - - - - - - -
23/03:30am 16.2 SSE 10 12 1022.6 - 0.0 - - - - - - -
23/03:00am 16.2 SSE 9 10 1022.8 - 0.0 - - - - - - -
23/02:30am 16.2 SSE 8 11 1022.9 - 0.0 - - - - - - -
23/02:00am 16.2 SSE 8 11 1023.0 - 0.0 - - - - - - -
23/01:30am 16.2 SSE 8 11 1022.9 - 0.0 - - - - - - -
23/01:00am 16.2 SSE 8 10 1023.0 - 0.0 - - - - - - -
23/12:30am 16.3 SE 6 9 1023.1 - 0.0 - - - - - - -
23/12:00am 16.4 SE 6 8 1023.2 - 0.0 - - - - - - -
 
Date/Time
EST
Temp
°C
Wind Pressure Rain since
9am
mm
Weather Cloud Vis
km
Sea
Height
m
Swell
Dir  Spd
kts
Gust
kts
hPa Trend Height
m
Period
s
Dir
22/11:30pm 16.7 SE 4 5 1023.2 - 0.0 - - - - - - -
22/11:00pm 16.8 S 2 3 1023.2 - 0.0 - - - - - - -
22/10:30pm 16.9 WNW 2 3 1023.1 - 0.0 - - - - - - -
22/10:00pm 16.6 WNW 2 3 1023.2 - 0.0 - - - - - - -
22/09:30pm 16.3 WNW 2 2 1023.1 - 0.0 - - - - - - -
22/09:00pm 16.9 WNW 2 3 1023.0 - 0.0 - - - - - - -
22/08:30pm 17.0 WNW 4 6 1022.8 - 0.0 - - - - - - -
22/08:00pm 17.0 WNW 4 5 1022.7 - 0.0 - - - - - - -
22/07:30pm 17.0 WNW 4 5 1022.5 - 0.0 - - - - - - -
22/07:00pm 17.1 NW 5 6 1022.5 - 0.0 - - - - - - -
22/06:30pm 17.2 NW 5 6 1022.3 - 0.0 - - - - - - -
22/06:00pm 17.2 NW 6 7 1022.2 - 0.0 - - - - - - -
22/05:30pm 17.2 NNW 5 6 1022.0 - 0.0 - - - - - - -
22/05:00pm 17.4 NNW 4 5 1021.9 - 0.0 - - - - - - -
22/04:30pm 17.5 NNW 5 5 1021.7 - 0.0 - - - - - - -
22/04:00pm 17.5 NW 5 6 1021.5 - 0.0 - - - - - - -
22/03:30pm 17.6 WNW 3 4 1021.4 - 0.0 - - - - - - -
22/03:00pm 17.4 W 3 5 1021.5 - 0.0 - - - - - - -
22/02:30pm 17.3 WNW 4 5 1021.4 - 0.0 - - - - - - -
22/02:00pm 17.4 NW 6 8 1021.5 - 0.0 - - - - - - -
22/01:30pm 17.8 W 5 7 1021.5 - 0.0 - - - - - - -
22/01:00pm 17.8 W 7 9 1021.7 - 0.0 - - - - - - -
22/12:30pm 18.4 W 8 11 1022.0 - 0.0 - - - - - - -
22/12:00pm 18.5 WNW 7 10 1022.2 - 0.0 - - - - - - -
22/11:30am 18.5 WNW 9 13 1022.3 - 0.0 - - - - - - -
22/11:00am 18.8 WNW 9 11 1022.5 - 0.0 - - - - - - -
22/10:30am 18.6 NW 9 13 1022.8 - 0.0 - - - - - - -
22/10:00am 18.4 NW 9 11 1022.9 - 0.0 - - - - - - -
22/09:30am 18.4 NW 9 10 1022.9 - 0.0 - - - - - - -
22/09:00am 18.7 NW 8 10 1022.7 - 0.2 - - - - - - -
22/08:30am 18.7 NNW 7 8 1022.6 - 0.2 - - - - - - -
22/08:00am 17.9 NNW 7 8 1022.5 - 0.2 - - - - - - -
22/07:30am 17.2 NNW 7 7 1022.3 - 0.2 - - - - - - -
22/07:00am 17.0 NNW 3 6 1022.0 - 0.2 - - - - - - -
22/06:30am 16.3 SE 1 2 1021.9 - 0.2 - - - - - - -
22/06:00am 16.0 SSE 2 2 1021.6 - 0.2 - - - - - - -
22/05:30am 16.1 SSE 2 2 1021.5 - 0.2 - - - - - - -
22/05:00am 16.0 SSE 2 2 1021.6 - 0.2 - - - - - - -
22/04:30am 16.1 SSE 3 3 1021.5 - 0.2 - - - - - - -
22/04:00am 16.1 SSE 3 4 1021.3 - 0.2 - - - - - - -
22/03:30am 16.0 S 4 5 1021.3 - 0.2 - - - - - - -
22/03:00am 16.2 S 4 5 1021.5 - 0.2 - - - - - - -
22/02:30am 16.6 S 3 5 1021.7 - 0.2 - - - - - - -
22/02:00am 16.7 S 4 5 1021.9 - 0.2 - - - - - - -
22/01:30am 17.1 E 1 3 1022.0 - 0.2 - - - - - - -
22/01:00am 17.5 NNE 1 2 1022.2 - 0.2 - - - - - - -
22/12:30am 17.6 NNE 3 5 1022.3 - 0.2 - - - - - - -
22/12:00am 17.6 N 5 6 1022.4 - 0.2 - - - - - - -
 
Date/Time
EST
Temp
°C
Wind Pressure Rain since
9am
mm
Weather Cloud Vis
km
Sea
Height
m
Swell
Dir  Spd
kts
Gust
kts
hPa Trend Height
m
Period
s
Dir
21/11:30pm 17.4 N 5 6 1022.6 - 0.2 - - - - - - -
21/11:00pm 17.2 NNE 6 9 1022.6 - 0.2 - - - - - - -
21/10:30pm 17.4 NNE 5 8 1022.6 - 0.2 - - - - - - -
21/10:00pm 17.7 N 6 8 1022.8 - 0.2 - - - - - - -
21/09:30pm 17.4 NNE 6 8 1022.7 - 0.2 - - - - - - -
21/09:00pm 17.3 NNE 8 10 1022.8 - 0.2 - - - - - - -
21/08:30pm 17.3 NNE 6 8 1022.7 - 0.2 - - - - - - -
21/08:00pm 17.4 NNE 5 6 1022.5 - 0.2 - - - - - - -
21/07:30pm 17.4 NE 4 5 1022.3 - 0.2 - - - - - - -
21/07:00pm 17.7 NNE 7 9 1022.2 - 0.2 - - - - - - -
21/06:30pm 17.7 N 5 6 1021.9 - 0.2 - - - - - - -
21/06:00pm 18.1 NE 6 8 1021.7 - 0.2 - - - - - - -
21/05:30pm 18.4 NNE 10 13 1021.5 - 0.2 - - - - - - -
21/05:00pm 18.9 NNE 12 15 1021.3 - 0.2 - - - - - - -
21/04:30pm 18.9 NNE 11 13 1021.2 - 0.2 - - - - - - -
21/04:00pm 19.0 NNE 10 13 1021.3 - 0.2 - - - - - - -
21/03:30pm 18.9 NNE 9 10 1021.5 - 0.2 - - - - - - -
21/03:00pm 19.4 NNE 8 12 1021.6 - 0.2 - - - - - - -
21/02:30pm 20.1 NE 11 14 1021.6 - 0.2 - - - - - - -
21/02:00pm 19.8 NNE 12 15 1021.6 - 0.2 - - - - - - -
21/01:30pm 20.1 NNE 12 14 1022.0 - 0.2 - - - - - - -
21/01:00pm 19.9 NNE 10 12 1022.3 - 0.2 - - - - - - -
21/12:30pm 21.3 NNE 9 13 1022.5 - 0.2 - - - - - - -
21/12:00pm 21.1 NNE 12 15 1022.7 - 0.2 - - - - - - -
21/11:30am 21.4 NNE 8 11 1023.3 - 0.2 - - - - - - -
21/11:00am 21.4 NNE 7 11 1023.5 - 0.2 - - - - - - -
21/10:30am 20.0 NE 6 8 1023.5 - 0.0 - - - - - - -
21/10:00am 19.7 ENE 8 9 1023.7 - 0.0 - - - - - - -
21/09:30am 19.0 ENE 10 12 1023.8 - 0.0 - - - - - - -
21/09:00am 18.8 E 11 15 1023.7 - 0.2 - - - - - - -
21/08:30am 18.3 E 9 10 1023.8 - 0.2 - - - - - - -
21/08:00am 17.9 E 7 8 1024.0 - 0.2 - - - - - - -
21/07:30am 17.8 E 8 10 1023.8 - 0.2 - - - - - - -
21/07:00am 17.4 ESE 7 9 1023.7 - 0.2 - - - - - - -
21/06:30am 17.5 ESE 8 10 1023.5 - 0.2 - - - - - - -
21/06:00am 17.4 ESE 8 10 1023.4 - 0.2 - - - - - - -
21/05:30am 17.1 SE 9 10 1023.4 - 0.2 - - - - - - -
21/05:00am 17.1 SE 8 9 1023.6 - 0.2 - - - - - - -
21/04:30am 16.8 S 5 7 1023.7 - 0.2 - - - - - - -
21/04:00am 17.1 SE 5 6 1023.8 - 0.2 - - - - - - -
21/03:30am 17.6 SE 6 8 1023.7 - 0.0 - - - - - - -
21/03:00am 16.7 SSE 5 6 1023.7 - 0.0 - - - - - - -
21/02:30am 18.0 ENE 7 9 1024.0 - 0.0 - - - - - - -
21/02:00am 17.7 E 4 6 1024.2 - 0.0 - - - - - - -
21/01:30am 17.7 ENE 3 4 1024.3 - 0.0 - - - - - - -
21/01:00am 17.3 NE 4 7 1024.3 - 0.0 - - - - - - -
21/12:30am 17.3 ENE 5 6 1024.4 - 0.0 - - - - - - -
21/12:00am 17.3 NE 6 7 1024.6 - 0.0 - - - - - - -
 
Date/Time
EST
Temp
°C
Wind Pressure Rain since
9am
mm
Weather Cloud Vis
km
Sea
Height
m
Swell
Dir  Spd
kts
Gust
kts
hPa Trend Height
m
Period
s
Dir
20/11:30pm 17.3 NNE 7 8 1024.7 - 0.0 - - - - - - -
20/11:00pm 17.4 NNE 8 9 1025.0 - 0.0 - - - - - - -
20/10:30pm 17.4 NNE 7 9 1025.2 - 0.0 - - - - - - -
20/10:00pm 17.5 NNE 6 7 1025.5 - 0.0 - - - - - - -
20/09:30pm 17.5 NNE 7 8 1025.5 - 0.0 - - - - - - -
20/09:00pm 17.4 N 5 6 1025.4 - 0.0 - - - - - - -
20/08:30pm 17.5 NNE 4 6 1025.4 - 0.0 - - - - - - -
20/08:00pm 17.6 NNE 3 4 1025.3 - 0.0 - - - - - - -
20/07:30pm 18.0 N 3 4 1025.3 - 0.0 - - - - - - -
20/07:00pm 18.4 N 4 6 1025.2 - 0.0 - - - - - - -
20/06:30pm 17.9 NNW 4 4 1025.1 - 0.0 - - - - - - -

Other Formats:

Comma delimited format used in spreadsheet applications
http://www.bom.gov.au/fwo/IDT60701/IDT60701.95985.axf

JavaScript Object Notation format (JSON) in row-major order
http://www.bom.gov.au/fwo/IDT60701/IDT60701.95985.json